TimeEST,TemperatureF,Dew PointF,Humidity,Sea Level PressureIn,VisibilityMPH,Wind Direction,Wind SpeedMPH,Gust SpeedMPH,PrecipitationIn,Events,Conditions,WindDirDegrees,DateUTC
12:51 AM,-9.0,-14.1,79,30.19,10.0,NNE,5.8,-,N/A,,Clear,30,2014-02-18 05:51:00
1:51 AM,-9.0,-13.0,83,30.15,10.0,SSW,5.8,-,N/A,,Clear,210,2014-02-18 06:51:00
2:51 AM,-0.9,-8.0,72,30.12,10.0,Variable,3.5,-,N/A,,Clear,0,2014-02-18 07:51:00
3:51 AM,3.9,-5.1,66,30.04,10.0,Calm,Calm,-,N/A,,Mostly Cloudy,0,2014-02-18 08:51:00
4:51 AM,21.9,-8.0,27,30.04,10.0,SSE,13.8,23.0,N/A,,Overcast,160,2014-02-18 09:51:00
5:51 AM,19.9,5.0,52,30.05,5.0,SSE,10.4,20.7,0.00,Snow,Light Snow,150,2014-02-18 10:51:00
6:51 AM,18.0,10.9,74,30.01,10.0,Calm,Calm,-,0.00,,Overcast,0,2014-02-18 11:51:00
7:51 AM,19.0,10.9,71,29.99,10.0,SSE,8.1,-,0.00,,Overcast,150,2014-02-18 12:51:00
8:51 AM,21.0,10.9,65,29.98,10.0,Variable,5.8,-,0.00,,Overcast,0,2014-02-18 13:51:00
9:51 AM,24.1,14.0,65,29.94,10.0,South,12.7,18.4,N/A,,Overcast,180,2014-02-18 14:51:00
10:51 AM,26.1,15.1,63,29.94,10.0,South,12.7,-,N/A,,Overcast,190,2014-02-18 15:51:00
11:51 AM,27.0,17.1,66,29.93,10.0,South,9.2,19.6,N/A,,Overcast,170,2014-02-18 16:51:00
12:46 PM,26.6,19.4,74,29.81,2.0,South,6.9,-,0.00,Snow,Light Snow,190,2014-02-18 17:46:00
12:51 PM,26.1,19.9,78,29.92,1.8,SSW,8.1,-,0.00,Snow,Light Snow,200,2014-02-18 17:51:00
1:02 PM,26.1,19.9,78,29.81,2.0,South,12.7,-,0.00,Snow,Light Snow,180,2014-02-18 18:02:00
1:13 PM,26.1,19.9,78,29.81,5.0,South,9.2,-,0.00,Snow,Light Snow,180,2014-02-18 18:13:00
1:46 PM,26.6,19.4,74,29.81,9.0,South,9.2,-,0.00,,Overcast,180,2014-02-18 18:46:00
1:51 PM,27.0,19.9,75,29.91,9.0,South,10.4,-,0.00,,Overcast,180,2014-02-18 18:51:00
2:22 PM,27.0,19.0,72,29.81,3.0,SW,15.0,-,0.00,Snow,Light Snow,230,2014-02-18 19:22:00
2:25 PM,27.0,19.9,75,29.82,2.5,SW,15.0,-,0.00,Snow,Light Snow,230,2014-02-18 19:25:00
2:31 PM,26.1,19.9,78,29.81,1.8,SW,13.8,-,0.00,Snow,Light Snow,220,2014-02-18 19:31:00
2:39 PM,26.1,19.9,78,29.82,3.0,SSW,9.2,-,0.00,Snow,Light Snow,200,2014-02-18 19:39:00
2:47 PM,26.6,21.2,80,29.82,2.5,SW,10.4,-,0.00,Snow,Light Snow,230,2014-02-18 19:47:00
2:51 PM,26.1,19.9,78,29.92,2.5,SW,13.8,-,0.00,Snow,Light Snow,220,2014-02-18 19:51:00
3:17 PM,26.1,19.9,78,29.83,4.0,SSW,8.1,-,0.00,Snow,Light Snow,210,2014-02-18 20:17:00
3:51 PM,26.1,19.0,75,29.92,8.0,SW,11.5,-,0.00,,Overcast,230,2014-02-18 20:51:00
4:26 PM,25.0,19.9,81,29.84,2.0,SSW,10.4,-,0.00,Snow,Light Snow,210,2014-02-18 21:26:00
4:37 PM,25.0,19.9,81,29.84,7.0,SW,8.1,-,0.00,,Overcast,220,2014-02-18 21:37:00
4:44 PM,25.0,19.9,81,29.84,3.0,SSW,9.2,-,0.00,,Haze,210,2014-02-18 21:44:00
4:46 PM,24.8,19.4,80,29.84,2.5,SSW,10.4,-,0.00,,Haze,210,2014-02-18 21:46:00
4:51 PM,25.0,19.9,81,29.92,1.8,SSW,9.2,-,0.00,Snow,Light Snow,210,2014-02-18 21:51:00
5:06 PM,25.0,21.0,85,29.85,3.0,SW,5.8,-,0.00,Snow,Light Snow,220,2014-02-18 22:06:00
5:30 PM,24.1,21.0,88,29.86,10.0,WSW,4.6,-,0.00,,Mostly Cloudy,240,2014-02-18 22:30:00
5:51 PM,24.1,21.0,88,29.95,4.0,WSW,3.5,-,0.00,Snow,Light Snow,240,2014-02-18 22:51:00
5:57 PM,23.0,21.0,92,29.88,1.8,SSW,6.9,-,0.00,Snow,Light Snow,210,2014-02-18 22:57:00
6:16 PM,23.0,19.0,85,29.89,3.0,WSW,8.1,-,0.00,Snow,Light Snow,240,2014-02-18 23:16:00
6:24 PM,23.0,19.0,85,29.88,3.0,WSW,5.8,-,0.00,Snow,Light Snow,250,2014-02-18 23:24:00
6:51 PM,21.9,18.0,85,29.97,6.0,WSW,8.1,-,0.00,,Overcast,250,2014-02-18 23:51:00
7:22 PM,21.9,17.1,82,29.90,9.0,West,9.2,-,N/A,,Overcast,260,2014-02-19 00:22:00
7:51 PM,21.9,18.0,85,29.99,9.0,SW,5.8,-,N/A,,Overcast,230,2014-02-19 00:51:00
8:07 PM,21.9,17.1,82,29.92,8.0,SW,8.1,-,N/A,,Overcast,230,2014-02-19 01:07:00
8:36 PM,21.0,17.1,85,29.92,3.0,SSW,6.9,-,0.00,Snow,Light Snow,210,2014-02-19 01:36:00
8:51 PM,21.0,18.0,88,29.99,4.0,SSW,5.8,-,0.00,Snow,Light Snow,210,2014-02-19 01:51:00
9:51 PM,21.0,18.0,88,29.98,4.0,SSW,5.8,-,0.00,Snow,Light Snow,210,2014-02-19 02:51:00
10:48 PM,21.2,17.6,86,29.90,9.0,WSW,3.5,-,0.00,,Overcast,240,2014-02-19 03:48:00
10:51 PM,21.0,18.0,88,29.98,9.0,WSW,4.6,-,0.00,,Overcast,240,2014-02-19 03:51:00
11:51 PM,21.0,17.1,85,29.98,9.0,SW,6.9,-,N/A,,Overcast,230,2014-02-19 04:51:00